createdAt,value
2018-11-02T00:00:20.955Z,1010.65
2018-11-02T00:01:20.890Z,1010.60
2018-11-02T00:02:20.883Z,1010.61
2018-11-02T00:03:20.872Z,1010.64
2018-11-02T00:04:20.854Z,1010.68
2018-11-02T00:05:20.850Z,1010.77
2018-11-02T00:06:20.899Z,1010.87
2018-11-02T00:07:20.823Z,1010.95
2018-11-02T00:08:20.815Z,1011.04
2018-11-02T00:09:20.817Z,1011.04
2018-11-02T00:10:20.789Z,1011.10
2018-11-02T00:11:20.777Z,1011.14
2018-11-02T00:12:20.835Z,1011.20
2018-11-02T00:13:20.760Z,1011.22
2018-11-02T00:14:20.743Z,1011.27
2018-11-02T00:15:20.732Z,1011.28
2018-11-02T00:16:20.720Z,1011.31
2018-11-02T00:17:20.711Z,1011.35
2018-11-02T00:18:20.700Z,1011.32
2018-11-02T00:19:20.692Z,1011.24
2018-11-02T00:20:20.683Z,1011.19
2018-11-02T00:21:20.681Z,1011.15
2018-11-02T00:22:20.654Z,1011.09
2018-11-02T00:23:20.643Z,1011.12
2018-11-02T00:24:20.633Z,1011.10
2018-11-02T00:25:20.621Z,1011.15
2018-11-02T00:26:20.633Z,1011.11
2018-11-02T00:27:20.605Z,1011.04
2018-11-02T00:28:20.624Z,1011.02
2018-11-02T00:29:20.578Z,1011.06
2018-11-02T00:30:20.583Z,1011.04
2018-11-02T00:31:20.555Z,1011.07
2018-11-02T00:32:20.606Z,1011.08
2018-11-02T00:33:20.533Z,1011.02
2018-11-02T00:34:20.523Z,1011.07
2018-11-02T00:35:20.509Z,1011.11
2018-11-02T00:36:20.498Z,1011.24
2018-11-02T00:37:20.491Z,1011.21
2018-11-02T00:38:20.477Z,1011.18
2018-11-02T00:39:20.465Z,1011.22
2018-11-02T00:40:20.492Z,1011.18
2018-11-02T00:41:20.444Z,1011.18
2018-11-02T00:42:20.432Z,1011.19
2018-11-02T00:43:20.419Z,1011.26
2018-11-02T00:44:20.442Z,1011.23
2018-11-02T00:45:20.398Z,1011.22
2018-11-02T00:46:20.386Z,1011.14
2018-11-02T00:47:20.376Z,1011.21
2018-11-02T00:48:20.407Z,1011.22
2018-11-02T00:49:20.356Z,1011.28
2018-11-02T00:50:20.349Z,1011.27
2018-11-02T00:51:20.331Z,1011.24
2018-11-02T00:52:20.346Z,1011.25
2018-11-02T00:53:20.310Z,1011.19
2018-11-02T00:54:20.349Z,1011.10
2018-11-02T00:55:20.292Z,1011.17
2018-11-02T00:56:20.298Z,1011.12
2018-11-02T00:57:20.266Z,1011.15
2018-11-02T00:58:20.309Z,1011.15
2018-11-02T00:59:20.247Z,1011.08
2018-11-02T01:00:20.286Z,1011.15
2018-11-02T01:01:20.222Z,1011.15
2018-11-02T01:02:20.256Z,1011.17
2018-11-02T01:03:20.221Z,1011.21
2018-11-02T01:04:20.262Z,1011.23
2018-11-02T01:05:20.219Z,1011.20
2018-11-02T01:06:20.228Z,1011.20
2018-11-02T01:07:20.164Z,1011.20
2018-11-02T01:08:20.177Z,1011.15
2018-11-02T01:09:20.171Z,1011.17
2018-11-02T01:10:20.119Z,1011.11
2018-11-02T01:11:20.111Z,1011.21
2018-11-02T01:12:20.116Z,1011.24
2018-11-02T01:13:20.085Z,1011.26
2018-11-02T01:14:20.073Z,1011.20
2018-11-02T01:15:20.064Z,1011.31
2018-11-02T01:16:20.050Z,1011.28
2018-11-02T01:17:20.047Z,1011.32
2018-11-02T01:18:20.029Z,1011.27
2018-11-02T01:19:20.019Z,1011.36
2018-11-02T01:20:20.009Z,1011.27
2018-11-02T01:21:19.993Z,1011.33
2018-11-02T01:22:19.987Z,1011.27
2018-11-02T01:23:19.972Z,1011.30
2018-11-02T01:24:19.957Z,1011.23
2018-11-02T01:25:19.949Z,1011.13
2018-11-02T01:26:19.937Z,1011.16
2018-11-02T01:27:19.923Z,1011.16
2018-11-02T01:28:19.926Z,1011.20
2018-11-02T01:29:19.909Z,1011.24
2018-11-02T01:30:19.889Z,1011.30
2018-11-02T01:31:19.875Z,1011.31
2018-11-02T01:32:19.866Z,1011.34
2018-11-02T01:33:19.858Z,1011.38
2018-11-02T01:34:19.847Z,1011.44
2018-11-02T01:35:19.842Z,1011.51
2018-11-02T01:36:19.818Z,1011.52
2018-11-02T01:37:19.806Z,1011.60
2018-11-02T01:38:19.796Z,1011.64
2018-11-02T01:39:19.788Z,1011.67
2018-11-02T01:40:19.774Z,1011.66
2018-11-02T01:41:19.760Z,1011.62
2018-11-02T01:42:19.749Z,1011.63
2018-11-02T01:43:19.738Z,1011.66
2018-11-02T01:44:19.729Z,1011.71
2018-11-02T01:45:19.721Z,1011.72
2018-11-02T01:46:19.707Z,1011.73
2018-11-02T01:47:19.693Z,1011.72
2018-11-02T01:48:19.681Z,1011.77
2018-11-02T01:49:19.670Z,1011.77
2018-11-02T01:50:19.658Z,1011.76
2018-11-02T01:51:19.647Z,1011.82
2018-11-02T01:52:19.640Z,1011.72
2018-11-02T01:53:19.623Z,1011.74
2018-11-02T01:54:19.613Z,1011.74
2018-11-02T01:55:19.600Z,1011.68
2018-11-02T01:56:19.592Z,1011.69
2018-11-02T01:57:19.576Z,1011.64
2018-11-02T01:58:19.562Z,1011.68
2018-11-02T01:59:19.553Z,1011.66
2018-11-02T02:00:19.547Z,1011.68
2018-11-02T02:01:19.540Z,1011.67
2018-11-02T02:02:19.525Z,1011.71
2018-11-02T02:03:19.507Z,1011.71
2018-11-02T02:04:19.493Z,1011.72
2018-11-02T02:05:19.485Z,1011.81
2018-11-02T02:06:19.470Z,1011.81
2018-11-02T02:07:19.459Z,1011.81
2018-11-02T02:08:19.448Z,1011.80
2018-11-02T02:09:19.437Z,1011.85
2018-11-02T02:10:19.424Z,1011.85
2018-11-02T02:11:19.412Z,1011.89
2018-11-02T02:12:19.406Z,1011.83
2018-11-02T02:13:19.517Z,1011.83
2018-11-02T02:14:19.381Z,1011.82
2018-11-02T02:15:19.370Z,1011.85
2018-11-02T02:16:19.353Z,1011.86
2018-11-02T02:17:19.343Z,1011.81
2018-11-02T02:18:19.331Z,1011.80
2018-11-02T02:19:19.319Z,1011.83
2018-11-02T02:20:19.307Z,1011.83
2018-11-02T02:21:19.295Z,1011.84
2018-11-02T02:22:19.283Z,1011.83
2018-11-02T02:23:19.275Z,1011.78
2018-11-02T02:24:19.265Z,1011.78
2018-11-02T02:25:19.255Z,1011.76
2018-11-02T02:26:19.244Z,1011.79
2018-11-02T02:27:19.227Z,1011.77
2018-11-02T02:28:19.243Z,1011.75
2018-11-02T02:29:19.206Z,1011.75
2018-11-02T02:30:19.225Z,1011.86
2018-11-02T02:31:19.209Z,1011.82
2018-11-02T02:32:19.174Z,1011.86
2018-11-02T02:33:19.163Z,1011.84
2018-11-02T02:34:19.146Z,1011.84
2018-11-02T02:35:19.136Z,1011.85
2018-11-02T02:36:19.124Z,1011.90
2018-11-02T02:37:19.116Z,1011.92
2018-11-02T02:38:19.105Z,1011.91
2018-11-02T02:39:19.091Z,1011.93
2018-11-02T02:40:19.078Z,1012.00
2018-11-02T02:41:19.080Z,1011.96
2018-11-02T02:42:19.055Z,1012.04
2018-11-02T02:43:19.043Z,1012.08
2018-11-02T02:44:19.035Z,1012.13
2018-11-02T02:45:19.019Z,1012.15
2018-11-02T02:46:19.013Z,1012.18
2018-11-02T02:47:18.996Z,1012.19
2018-11-02T02:48:18.994Z,1012.24
2018-11-02T02:49:18.975Z,1012.24
2018-11-02T02:50:18.963Z,1012.28
2018-11-02T02:51:18.954Z,1012.25
2018-11-02T02:52:18.940Z,1012.27
2018-11-02T02:53:18.932Z,1012.37
2018-11-02T02:54:18.931Z,1012.28
2018-11-02T02:55:18.908Z,1012.32
2018-11-02T02:56:18.903Z,1012.34
2018-11-02T02:57:18.888Z,1012.32
2018-11-02T02:58:18.880Z,1012.29
2018-11-02T02:59:18.865Z,1012.30
2018-11-02T03:00:18.852Z,1012.34
2018-11-02T03:01:18.841Z,1012.26
2018-11-02T03:02:18.829Z,1012.29
2018-11-02T03:03:18.819Z,1012.32
2018-11-02T03:04:18.842Z,1012.40
2018-11-02T03:05:18.799Z,1012.32
2018-11-02T03:06:18.785Z,1012.33
2018-11-02T03:07:18.776Z,1012.36
2018-11-02T03:08:18.764Z,1012.47
2018-11-02T03:09:18.754Z,1012.40
2018-11-02T03:10:18.830Z,1012.40
2018-11-02T03:11:18.814Z,1012.40
2018-11-02T03:12:18.724Z,1012.38
2018-11-02T03:13:18.708Z,1012.40
2018-11-02T03:14:18.699Z,1012.40
2018-11-02T03:15:18.688Z,1012.51
2018-11-02T03:16:18.675Z,1012.43
2018-11-02T03:17:18.668Z,1012.39
2018-11-02T03:18:18.691Z,1012.37
2018-11-02T03:19:18.642Z,1012.45
2018-11-02T03:20:18.638Z,1012.46
2018-11-02T03:21:18.642Z,1012.46
2018-11-02T03:22:18.619Z,1012.45
2018-11-02T03:23:18.597Z,1012.49
2018-11-02T03:24:18.586Z,1012.43
2018-11-02T03:25:18.574Z,1012.50
2018-11-02T03:26:18.564Z,1012.48
2018-11-02T03:27:18.553Z,1012.54
2018-11-02T03:28:18.545Z,1012.49
2018-11-02T03:29:18.533Z,1012.51
2018-11-02T03:30:18.523Z,1012.52
2018-11-02T03:31:18.513Z,1012.50
2018-11-02T03:32:18.502Z,1012.54
2018-11-02T03:33:18.490Z,1012.50
2018-11-02T03:34:18.476Z,1012.61
2018-11-02T03:35:18.462Z,1012.52
2018-11-02T03:36:18.449Z,1012.52
2018-11-02T03:37:18.439Z,1012.52
2018-11-02T03:38:18.433Z,1012.54
2018-11-02T03:39:18.420Z,1012.48
2018-11-02T03:40:18.419Z,1012.52
2018-11-02T03:41:18.397Z,1012.49
2018-11-02T03:42:18.382Z,1012.48
2018-11-02T03:43:18.372Z,1012.51
2018-11-02T03:44:18.358Z,1012.50
2018-11-02T03:45:18.351Z,1012.52
2018-11-02T03:46:18.347Z,1012.57
2018-11-02T03:47:18.325Z,1012.56
2018-11-02T03:48:18.316Z,1012.56
2018-11-02T03:49:18.303Z,1012.56
2018-11-02T03:50:18.292Z,1012.60
2018-11-02T03:51:18.286Z,1012.57
2018-11-02T03:52:18.270Z,1012.54
2018-11-02T03:53:18.259Z,1012.56
2018-11-02T03:54:18.252Z,1012.55
2018-11-02T03:55:18.245Z,1012.53
2018-11-02T03:56:19.269Z,1012.58
2018-11-02T03:57:18.212Z,1012.61
2018-11-02T03:58:18.203Z,1012.63
2018-11-02T03:59:18.191Z,1012.59
2018-11-02T04:00:18.178Z,1012.65
2018-11-02T04:01:18.171Z,1012.69
2018-11-02T04:02:18.156Z,1012.72
2018-11-02T04:03:18.145Z,1012.72
2018-11-02T04:04:18.133Z,1012.70
2018-11-02T04:05:18.123Z,1012.72
2018-11-02T04:06:18.136Z,1012.72
2018-11-02T04:07:18.119Z,1012.68
2018-11-02T04:08:18.090Z,1012.73
2018-11-02T04:09:18.102Z,1012.68
2018-11-02T04:10:18.066Z,1012.70
2018-11-02T04:11:18.056Z,1012.72
2018-11-02T04:12:18.043Z,1012.68
2018-11-02T04:13:18.031Z,1012.72
2018-11-02T04:14:18.022Z,1012.74
2018-11-02T04:15:18.009Z,1012.78
2018-11-02T04:16:18.006Z,1012.79
2018-11-02T04:17:17.988Z,1012.74
2018-11-02T04:18:17.978Z,1012.78
2018-11-02T04:19:17.964Z,1012.85
2018-11-02T04:20:17.955Z,1012.75
2018-11-02T04:21:17.940Z,1012.85
2018-11-02T04:22:17.934Z,1012.86
2018-11-02T04:23:17.922Z,1012.81
2018-11-02T04:24:17.912Z,1012.78
2018-11-02T04:25:17.905Z,1012.80
2018-11-02T04:26:17.887Z,1012.85
2018-11-02T04:27:17.874Z,1012.84
2018-11-02T04:28:17.863Z,1012.90
2018-11-02T04:29:17.853Z,1012.93
2018-11-02T04:30:17.840Z,1012.94
2018-11-02T04:31:17.828Z,1012.86
2018-11-02T04:32:17.817Z,1012.88
2018-11-02T04:33:17.813Z,1012.87
2018-11-02T04:34:17.795Z,1012.85
2018-11-02T04:35:17.786Z,1012.87
2018-11-02T04:36:17.778Z,1012.96
2018-11-02T04:37:17.760Z,1013.05
2018-11-02T04:38:17.749Z,1012.98
2018-11-02T04:39:17.748Z,1013.03
2018-11-02T04:40:17.726Z,1013.06
2018-11-02T04:41:17.719Z,1013.07
2018-11-02T04:42:17.712Z,1013.07
2018-11-02T04:43:17.701Z,1013.06
2018-11-02T04:44:17.683Z,1013.02
2018-11-02T04:45:17.671Z,1013.09
2018-11-02T04:46:17.664Z,1013.06
2018-11-02T04:47:17.673Z,1013.07
2018-11-02T04:48:17.670Z,1013.14
2018-11-02T04:49:17.634Z,1013.12
2018-11-02T04:50:17.623Z,1013.16
2018-11-02T04:51:17.809Z,1013.20
2018-11-02T04:52:17.596Z,1013.25
2018-11-02T04:53:17.584Z,1013.27
2018-11-02T04:54:17.581Z,1013.25
2018-11-02T04:55:17.561Z,1013.20
2018-11-02T04:56:17.551Z,1013.20
2018-11-02T04:57:17.542Z,1013.24
2018-11-02T04:58:17.530Z,1013.30
2018-11-02T04:59:17.516Z,1013.30
2018-11-02T05:00:17.508Z,1013.27
2018-11-02T05:01:17.497Z,1013.24
2018-11-02T05:02:17.484Z,1013.27
2018-11-02T05:03:17.475Z,1013.23
2018-11-02T05:04:17.463Z,1013.30
2018-11-02T05:05:17.453Z,1013.29
2018-11-02T05:06:17.439Z,1013.35
2018-11-02T05:07:17.427Z,1013.42
2018-11-02T05:08:17.419Z,1013.48
2018-11-02T05:09:17.416Z,1013.48
2018-11-02T05:10:17.411Z,1013.44
2018-11-02T05:11:17.429Z,1013.39
2018-11-02T05:12:17.371Z,1013.40
2018-11-02T05:13:17.366Z,1013.41
2018-11-02T05:14:17.358Z,1013.36
2018-11-02T05:15:17.339Z,1013.38
2018-11-02T05:16:17.327Z,1013.33
2018-11-02T05:17:17.319Z,1013.33
2018-11-02T05:18:17.310Z,1013.31
2018-11-02T05:19:17.295Z,1013.28
2018-11-02T05:20:17.288Z,1013.25
2018-11-02T05:21:17.402Z,1013.32
2018-11-02T05:22:17.267Z,1013.32
2018-11-02T05:23:17.252Z,1013.37
2018-11-02T05:24:17.241Z,1013.38
2018-11-02T05:25:17.230Z,1013.37
2018-11-02T05:26:17.219Z,1013.38
2018-11-02T05:27:17.210Z,1013.44
2018-11-02T05:28:17.227Z,1013.53
2018-11-02T05:29:17.186Z,1013.57
2018-11-02T05:30:17.180Z,1013.53
2018-11-02T05:31:17.166Z,1013.60
2018-11-02T05:32:17.154Z,1013.57
2018-11-02T05:33:17.144Z,1013.61
2018-11-02T05:34:17.134Z,1013.63
2018-11-02T05:35:17.129Z,1013.64
2018-11-02T05:36:17.110Z,1013.68
2018-11-02T05:37:17.101Z,1013.66
2018-11-02T05:38:17.095Z,1013.67
2018-11-02T05:39:17.095Z,1013.70
2018-11-02T05:40:17.066Z,1013.75
2018-11-02T05:41:17.055Z,1013.74
2018-11-02T05:42:17.043Z,1013.80
2018-11-02T05:43:17.036Z,1013.81
2018-11-02T05:44:17.024Z,1013.84
2018-11-02T05:45:17.012Z,1013.91
2018-11-02T05:46:17.006Z,1013.92
2018-11-02T05:47:17.134Z,1013.88
2018-11-02T05:48:16.980Z,1013.86
2018-11-02T05:49:16.973Z,1013.89
2018-11-02T05:50:16.965Z,1013.93
2018-11-02T05:51:16.947Z,1013.87
2018-11-02T05:52:16.936Z,1013.90
2018-11-02T05:53:16.926Z,1013.93
2018-11-02T05:54:17.090Z,1013.90
2018-11-02T05:55:16.905Z,1013.86
2018-11-02T05:56:16.895Z,1013.90
2018-11-02T05:57:16.882Z,1013.92
2018-11-02T05:58:16.873Z,1013.95
2018-11-02T05:59:16.895Z,1013.97
2018-11-02T06:00:16.852Z,1013.98
2018-11-02T06:01:16.898Z,1013.99
2018-11-02T06:02:16.827Z,1013.98
2018-11-02T06:03:16.819Z,1014.01
2018-11-02T06:04:16.810Z,1014.05
2018-11-02T06:05:16.794Z,1014.08
2018-11-02T06:06:16.786Z,1014.07
2018-11-02T06:07:16.826Z,1014.08
2018-11-02T06:08:16.763Z,1014.13
2018-11-02T06:09:16.753Z,1014.06
2018-11-02T06:10:16.744Z,1014.05
2018-11-02T06:11:16.729Z,1014.08
2018-11-02T06:12:16.718Z,1014.09
2018-11-02T06:13:16.715Z,1014.07
2018-11-02T06:14:16.700Z,1014.15
2018-11-02T06:15:16.691Z,1014.09
2018-11-02T06:16:16.680Z,1014.11
2018-11-02T06:17:16.668Z,1014.08
2018-11-02T06:18:16.655Z,1014.04
2018-11-02T06:19:16.643Z,1014.04
2018-11-02T06:20:16.632Z,1014.07
2018-11-02T06:21:16.624Z,1014.09
2018-11-02T06:22:16.612Z,1014.13
2018-11-02T06:23:16.598Z,1014.16
2018-11-02T06:24:16.698Z,1014.13
2018-11-02T06:25:16.577Z,1014.20
2018-11-02T06:26:16.571Z,1014.20
2018-11-02T06:27:16.630Z,1014.22
2018-11-02T06:28:16.544Z,1014.27
2018-11-02T06:29:16.537Z,1014.33
2018-11-02T06:30:16.531Z,1014.33
2018-11-02T06:31:16.514Z,1014.39
2018-11-02T06:32:16.502Z,1014.37
2018-11-02T06:33:16.491Z,1014.35
2018-11-02T06:34:16.486Z,1014.38
2018-11-02T06:35:16.469Z,1014.42
2018-11-02T06:36:16.459Z,1014.53
2018-11-02T06:37:16.448Z,1014.50
2018-11-02T06:38:16.471Z,1014.55
2018-11-02T06:39:16.427Z,1014.59
2018-11-02T06:40:16.415Z,1014.58
2018-11-02T06:41:16.411Z,1014.53
2018-11-02T06:42:16.393Z,1014.51
2018-11-02T06:43:16.382Z,1014.65
2018-11-02T06:44:16.375Z,1014.65
2018-11-02T06:45:16.365Z,1014.71
2018-11-02T06:46:16.363Z,1014.76
2018-11-02T06:47:16.358Z,1014.78
2018-11-02T06:48:16.368Z,1014.76
2018-11-02T06:49:16.368Z,1014.70
2018-11-02T06:50:16.311Z,1014.75
2018-11-02T06:51:16.311Z,1014.76
2018-11-02T06:52:16.313Z,1014.79
2018-11-02T06:53:16.316Z,1014.83
2018-11-02T06:54:16.262Z,1014.88
2018-11-02T06:55:16.258Z,1014.84
2018-11-02T06:56:16.243Z,1014.93
2018-11-02T06:57:16.235Z,1014.96
2018-11-02T06:58:16.225Z,1014.91
2018-11-02T06:59:16.341Z,1014.95
2018-11-02T07:00:16.243Z,1015.02
2018-11-02T07:01:16.191Z,1015.06
2018-11-02T07:02:16.179Z,1015.06
2018-11-02T07:03:16.166Z,1015.06
2018-11-02T07:04:16.161Z,1015.09
2018-11-02T07:05:16.146Z,1015.08
2018-11-02T07:06:16.132Z,1015.12
2018-11-02T07:07:16.189Z,1015.13
2018-11-02T07:08:16.153Z,1015.18
2018-11-02T07:09:16.101Z,1015.18
2018-11-02T07:10:16.091Z,1015.11
2018-11-02T07:11:16.080Z,1015.15
2018-11-02T07:12:16.076Z,1015.10
2018-11-02T07:13:16.056Z,1015.08
2018-11-02T07:14:16.050Z,1015.11
2018-11-02T07:15:16.037Z,1015.13
2018-11-02T07:16:16.034Z,1015.08
2018-11-02T07:17:16.014Z,1015.14
2018-11-02T07:18:16.005Z,1015.21
2018-11-02T07:19:15.992Z,1015.24
2018-11-02T07:20:16.007Z,1015.19
2018-11-02T07:21:15.980Z,1015.23
2018-11-02T07:22:15.961Z,1015.24
2018-11-02T07:23:15.948Z,1015.28
2018-11-02T07:24:15.937Z,1015.27
2018-11-02T07:25:16.023Z,1015.28
2018-11-02T07:26:15.915Z,1015.29
2018-11-02T07:27:15.903Z,1015.26
2018-11-02T07:28:15.892Z,1015.22
2018-11-02T07:29:15.894Z,1015.22
2018-11-02T07:30:15.893Z,1015.24
2018-11-02T07:31:15.863Z,1015.24
2018-11-02T07:32:15.854Z,1015.25
2018-11-02T07:33:15.837Z,1015.20
2018-11-02T07:34:15.898Z,1015.23
2018-11-02T07:35:15.814Z,1015.28
2018-11-02T07:36:15.802Z,1015.29
2018-11-02T07:37:15.796Z,1015.28
2018-11-02T07:38:15.783Z,1015.30
2018-11-02T07:39:15.775Z,1015.33
2018-11-02T07:40:15.761Z,1015.37
2018-11-02T07:41:15.746Z,1015.46
2018-11-02T07:42:15.735Z,1015.49
2018-11-02T07:43:15.726Z,1015.58
2018-11-02T07:44:15.716Z,1015.51
2018-11-02T07:45:15.705Z,1015.46
2018-11-02T07:46:15.688Z,1015.45
2018-11-02T07:47:15.677Z,1015.52
2018-11-02T07:48:15.668Z,1015.43
2018-11-02T07:49:15.688Z,1015.47
2018-11-02T07:50:15.650Z,1015.58
2018-11-02T07:51:15.637Z,1015.58
2018-11-02T07:52:15.624Z,1015.58
2018-11-02T07:53:15.612Z,1015.62
2018-11-02T07:54:15.600Z,1015.65
2018-11-02T07:55:15.589Z,1015.64
2018-11-02T07:56:15.578Z,1015.59
2018-11-02T07:57:15.566Z,1015.67
2018-11-02T07:58:15.554Z,1015.67
2018-11-02T07:59:15.552Z,1015.76
2018-11-02T08:00:15.535Z,1015.87
2018-11-02T08:01:15.521Z,1015.83
2018-11-02T08:02:15.515Z,1015.81
2018-11-02T08:03:15.500Z,1015.86
2018-11-02T08:04:15.489Z,1015.86
2018-11-02T08:05:15.477Z,1015.94
2018-11-02T08:06:15.467Z,1015.91
2018-11-02T08:07:15.454Z,1015.93
2018-11-02T08:08:15.450Z,1015.99
2018-11-02T08:09:15.438Z,1015.94
2018-11-02T08:10:15.426Z,1015.96
2018-11-02T08:11:15.461Z,1016.03
2018-11-02T08:12:15.404Z,1016.05
2018-11-02T08:13:15.392Z,1016.05
2018-11-02T08:14:15.392Z,1016.07
2018-11-02T08:15:15.369Z,1016.11
2018-11-02T08:16:15.361Z,1016.09
2018-11-02T08:17:15.351Z,1016.12
2018-11-02T08:18:15.334Z,1016.11
2018-11-02T08:19:15.320Z,1016.12
2018-11-02T08:20:15.308Z,1016.13
2018-11-02T08:21:15.297Z,1016.18
2018-11-02T08:22:15.287Z,1016.13
2018-11-02T08:23:15.275Z,1016.15
2018-11-02T08:24:15.265Z,1016.21
2018-11-02T08:25:15.256Z,1016.26
2018-11-02T08:26:15.240Z,1016.24
2018-11-02T08:27:15.236Z,1016.30
2018-11-02T08:28:15.219Z,1016.25
2018-11-02T08:29:15.207Z,1016.24
2018-11-02T08:30:15.196Z,1016.25
2018-11-02T08:31:15.196Z,1016.24
2018-11-02T08:32:15.326Z,1016.23
2018-11-02T08:33:15.164Z,1016.27
2018-11-02T08:34:15.151Z,1016.23
2018-11-02T08:35:15.146Z,1016.25
2018-11-02T08:36:15.132Z,1016.21
2018-11-02T08:37:15.122Z,1016.22
2018-11-02T08:38:15.117Z,1016.25
2018-11-02T08:39:15.099Z,1016.19
2018-11-02T08:40:15.086Z,1016.33
2018-11-02T08:41:15.074Z,1016.28
2018-11-02T08:42:15.064Z,1016.33
2018-11-02T08:43:15.053Z,1016.32
2018-11-02T08:44:15.041Z,1016.28
2018-11-02T08:45:15.037Z,1016.25
2018-11-02T08:46:15.024Z,1016.30
2018-11-02T08:47:15.017Z,1016.38
2018-11-02T08:48:15.007Z,1016.38
2018-11-02T08:49:14.986Z,1016.38
2018-11-02T08:50:14.980Z,1016.38
2018-11-02T08:51:14.967Z,1016.48
2018-11-02T08:52:15.035Z,1016.46
2018-11-02T08:53:14.944Z,1016.44
2018-11-02T08:54:14.934Z,1016.39
2018-11-02T08:55:14.921Z,1016.40
2018-11-02T08:56:14.913Z,1016.38
2018-11-02T08:57:14.902Z,1016.38
2018-11-02T08:58:15.060Z,1016.40
2018-11-02T08:59:14.962Z,1016.32
2018-11-02T09:00:15.038Z,1016.33
2018-11-02T09:01:14.864Z,1016.37
2018-11-02T09:02:14.847Z,1016.38
2018-11-02T09:03:14.858Z,1016.42
2018-11-02T09:04:14.825Z,1016.39
2018-11-02T09:05:14.986Z,1016.39
2018-11-02T09:06:14.802Z,1016.48
2018-11-02T09:07:14.792Z,1016.46
2018-11-02T09:08:14.793Z,1016.52
2018-11-02T09:09:14.769Z,1016.52
2018-11-02T09:10:14.756Z,1016.57
2018-11-02T09:11:14.746Z,1016.60
2018-11-02T09:12:14.857Z,1016.57
2018-11-02T09:13:14.724Z,1016.56
2018-11-02T09:14:14.712Z,1016.55
2018-11-02T09:15:14.707Z,1016.50
2018-11-02T09:16:14.689Z,1016.57
2018-11-02T09:17:14.677Z,1016.61
2018-11-02T09:18:14.669Z,1016.49
2018-11-02T09:19:14.667Z,1016.59
2018-11-02T09:20:14.644Z,1016.61
2018-11-02T09:21:14.633Z,1016.68
2018-11-02T09:22:14.623Z,1016.72
2018-11-02T09:23:14.611Z,1016.65
2018-11-02T09:24:14.599Z,1016.63
2018-11-02T09:25:14.587Z,1016.60
2018-11-02T09:26:14.575Z,1016.67
2018-11-02T09:27:14.615Z,1016.72
2018-11-02T09:28:14.560Z,1016.74
2018-11-02T09:29:14.547Z,1016.82
2018-11-02T09:30:14.567Z,1016.87
2018-11-02T09:31:14.517Z,1016.88
2018-11-02T09:32:14.507Z,1016.91
2018-11-02T09:33:14.500Z,1016.89
2018-11-02T09:34:14.484Z,1016.86
2018-11-02T09:35:14.475Z,1016.90
2018-11-02T09:36:14.466Z,1016.96
2018-11-02T09:37:14.455Z,1016.94
2018-11-02T09:38:14.439Z,1016.97
2018-11-02T09:39:14.431Z,1017.00
2018-11-02T09:40:14.470Z,1016.97
2018-11-02T09:41:14.403Z,1017.09
2018-11-02T09:42:14.390Z,1017.10
2018-11-02T09:43:14.380Z,1017.01
2018-11-02T09:44:14.374Z,1017.00
2018-11-02T09:45:14.357Z,1017.09
2018-11-02T09:46:14.346Z,1017.00
2018-11-02T09:47:14.333Z,1017.07
2018-11-02T09:48:14.322Z,1017.04
2018-11-02T09:49:14.317Z,1017.10
2018-11-02T09:50:14.311Z,1017.05
2018-11-02T09:51:14.351Z,1017.09
2018-11-02T09:52:14.276Z,1017.05
2018-11-02T09:53:14.266Z,1017.01
2018-11-02T09:54:14.255Z,1016.95
2018-11-02T09:55:14.247Z,1016.97
2018-11-02T09:56:14.232Z,1017.00
2018-11-02T09:57:14.220Z,1017.01
2018-11-02T09:58:14.210Z,1017.02
2018-11-02T09:59:14.200Z,1017.06
2018-11-02T10:00:14.191Z,1017.08
2018-11-02T10:01:14.181Z,1017.11
2018-11-02T10:02:14.253Z,1017.04
2018-11-02T10:03:14.153Z,1016.98
2018-11-02T10:04:14.144Z,1016.96
2018-11-02T10:05:14.133Z,1016.87
2018-11-02T10:06:14.119Z,1016.76
2018-11-02T10:07:14.114Z,1016.76
2018-11-02T10:08:14.132Z,1016.83
2018-11-02T10:09:14.204Z,1016.87
2018-11-02T10:10:14.076Z,1016.88
2018-11-02T10:11:14.064Z,1016.91
2018-11-02T10:12:14.057Z,1016.93
2018-11-02T10:13:14.043Z,1017.00
2018-11-02T10:14:14.029Z,1016.96
2018-11-02T10:15:14.030Z,1016.94
2018-11-02T10:16:14.006Z,1017.03
2018-11-02T10:17:13.995Z,1017.02
2018-11-02T10:18:14.008Z,1017.00
2018-11-02T10:19:13.971Z,1016.96
2018-11-02T10:20:13.959Z,1017.04
2018-11-02T10:21:13.949Z,1016.95
2018-11-02T10:22:13.944Z,1017.06
2018-11-02T10:23:13.927Z,1017.00
2018-11-02T10:24:13.916Z,1017.11
2018-11-02T10:25:13.909Z,1017.11
2018-11-02T10:26:13.896Z,1017.10
2018-11-02T10:27:13.883Z,1017.08
2018-11-02T10:28:13.943Z,1017.02
2018-11-02T10:29:13.863Z,1017.09
2018-11-02T10:30:13.855Z,1017.10
2018-11-02T10:31:13.839Z,1017.04
2018-11-02T10:32:13.832Z,1017.13
2018-11-02T10:33:13.821Z,1017.09
2018-11-02T10:34:13.805Z,1017.06
2018-11-02T10:35:13.845Z,1017.01
2018-11-02T10:36:13.794Z,1017.07
2018-11-02T10:37:13.775Z,1017.04
2018-11-02T10:38:13.762Z,1016.92
2018-11-02T10:39:13.751Z,1016.96
2018-11-02T10:40:13.740Z,1016.98
2018-11-02T10:41:13.735Z,1017.02
2018-11-02T10:42:13.721Z,1017.05
2018-11-02T10:43:13.707Z,1017.07
2018-11-02T10:44:13.730Z,1017.00
2018-11-02T10:45:13.689Z,1017.05
2018-11-02T10:46:13.680Z,1016.99
2018-11-02T10:47:13.666Z,1017.01
2018-11-02T10:48:13.654Z,1017.07
2018-11-02T10:49:13.701Z,1017.05
2018-11-02T10:50:13.631Z,1017.20
2018-11-02T10:51:13.633Z,1017.19
2018-11-02T10:52:13.609Z,1017.30
2018-11-02T10:53:13.597Z,1017.37
2018-11-02T10:54:13.590Z,1017.42
2018-11-02T10:55:13.579Z,1017.33
2018-11-02T10:56:13.569Z,1017.31
2018-11-02T10:57:13.557Z,1017.26
2018-11-02T10:58:13.553Z,1017.19
2018-11-02T10:59:13.531Z,1017.32
2018-11-02T11:00:13.522Z,1017.24
2018-11-02T11:01:13.584Z,1017.33
2018-11-02T11:02:13.497Z,1017.36
2018-11-02T11:03:13.488Z,1017.32
2018-11-02T11:04:13.477Z,1017.57
2018-11-02T11:05:13.495Z,1017.51
2018-11-02T11:06:13.456Z,1017.51
2018-11-02T11:07:13.443Z,1017.46
2018-11-02T11:08:13.432Z,1017.52
2018-11-02T11:09:13.421Z,1017.44
2018-11-02T11:10:13.409Z,1017.47
2018-11-02T11:11:13.398Z,1017.55
2018-11-02T11:12:13.451Z,1017.51
2018-11-02T11:13:13.816Z,1017.55
2018-11-02T11:14:13.368Z,1017.47
2018-11-02T11:15:13.354Z,1017.50
2018-11-02T11:16:13.345Z,1017.47
2018-11-02T11:17:13.334Z,1017.48
2018-11-02T11:18:13.325Z,1017.42
2018-11-02T11:19:13.312Z,1017.38
2018-11-02T11:20:13.299Z,1017.36
2018-11-02T11:21:13.321Z,1017.28
2018-11-02T11:22:13.276Z,1017.32
2018-11-02T11:23:13.264Z,1017.30
2018-11-02T11:24:13.263Z,1017.42
2018-11-02T11:25:13.246Z,1017.43
2018-11-02T11:26:13.236Z,1017.48
2018-11-02T11:27:13.219Z,1017.57
2018-11-02T11:28:13.236Z,1017.61
2018-11-02T11:29:13.232Z,1017.60
2018-11-02T11:30:13.189Z,1017.55
2018-11-02T11:31:13.174Z,1017.51
2018-11-02T11:32:13.164Z,1017.48
2018-11-02T11:33:13.182Z,1017.43
2018-11-02T11:34:13.142Z,1017.42
2018-11-02T11:35:13.132Z,1017.45
2018-11-02T11:36:13.126Z,1017.49
2018-11-02T11:37:13.113Z,1017.61
2018-11-02T11:38:13.098Z,1017.56
2018-11-02T11:39:13.093Z,1017.49
2018-11-02T11:40:13.073Z,1017.60
2018-11-02T11:41:13.064Z,1017.62
2018-11-02T11:42:13.050Z,1017.59
2018-11-02T11:43:13.042Z,1017.58
2018-11-02T11:44:13.047Z,1017.55
2018-11-02T11:45:13.018Z,1017.54
2018-11-02T11:46:13.007Z,1017.61
2018-11-02T11:47:12.995Z,1017.53
2018-11-02T11:48:12.991Z,1017.56
2018-11-02T11:49:12.989Z,1017.57
2018-11-02T11:50:12.966Z,1017.47
2018-11-02T11:51:12.953Z,1017.54
2018-11-02T11:52:12.940Z,1017.57
2018-11-02T11:53:12.933Z,1017.53
2018-11-02T11:54:12.945Z,1017.56
2018-11-02T11:55:12.907Z,1017.62
2018-11-02T11:56:12.900Z,1017.56
2018-11-02T11:57:12.885Z,1017.65
2018-11-02T11:58:12.873Z,1017.73
2018-11-02T11:59:12.863Z,1017.74
2018-11-02T12:00:12.856Z,1017.70
2018-11-02T12:01:12.846Z,1017.71
2018-11-02T12:02:12.882Z,1017.74
2018-11-02T12:03:12.818Z,1017.77
2018-11-02T12:04:12.894Z,1017.69
2018-11-02T12:05:12.799Z,1017.72